createdAt,value
2022-09-12T00:15:10.734Z,6.10
2022-09-12T00:25:32.191Z,7.03
2022-09-12T00:46:35.304Z,5.63
2022-09-12T00:57:01.570Z,6.57
2022-09-12T01:07:23.976Z,7.10
2022-09-12T01:18:09.736Z,6.53
2022-09-12T01:28:58.687Z,6.40
2022-09-12T01:39:29.756Z,6.95
2022-09-12T01:50:03.178Z,7.20
2022-09-12T02:00:25.312Z,7.78
2022-09-12T02:10:53.772Z,6.75
2022-09-12T02:21:18.419Z,6.72
2022-09-12T02:31:48.023Z,7.13
2022-09-12T02:42:09.559Z,7.63
2022-09-12T03:03:00.624Z,7.20
2022-09-12T03:13:37.894Z,6.70
2022-09-12T03:24:11.707Z,7.25
2022-09-12T03:34:33.226Z,7.72
2022-09-12T03:44:54.660Z,7.57
2022-09-12T03:55:16.318Z,7.32
2022-09-12T04:05:37.825Z,7.40
2022-09-12T04:16:00.059Z,7.80
2022-09-12T04:26:21.573Z,7.32
2022-09-12T04:36:43.110Z,7.18
2022-09-12T04:57:26.182Z,8.00
2022-09-12T05:18:08.995Z,7.43
2022-09-12T05:28:33.319Z,7.68
2022-09-12T05:38:55.454Z,8.15
2022-09-12T05:49:16.959Z,8.80
2022-09-12T05:59:38.627Z,12.00
2022-09-12T06:20:21.611Z,14.00
2022-09-12T06:30:43.226Z,13.85
2022-09-12T06:51:28.773Z,15.48
2022-09-12T07:01:50.852Z,14.57
2022-09-12T07:12:12.576Z,16.13
2022-09-12T07:22:34.037Z,16.60
2022-09-12T07:43:16.859Z,16.35
2022-09-12T07:53:40.837Z,16.25
2022-09-12T08:04:04.727Z,16.30
2022-09-12T08:14:27.505Z,17.17
2022-09-12T08:24:49.672Z,16.27
2022-09-12T08:35:11.134Z,16.92
2022-09-12T08:45:39.161Z,18.05
2022-09-12T08:56:03.310Z,17.92
2022-09-12T09:06:33.919Z,17.73
2022-09-12T09:16:57.106Z,16.85
2022-09-12T09:27:40.856Z,15.60
2022-09-12T09:38:16.790Z,14.73
2022-09-12T09:48:43.983Z,13.05
2022-09-12T09:59:15.448Z,12.38
2022-09-12T10:09:38.380Z,10.50
2022-09-12T10:20:19.795Z,9.98
2022-09-12T10:30:52.765Z,8.10
2022-09-12T10:41:14.319Z,5.22
2022-09-12T10:51:35.779Z,4.75
2022-09-12T11:02:09.978Z,4.80
2022-09-12T11:12:47.333Z,4.63
2022-09-12T11:23:21.552Z,4.97
2022-09-12T11:33:46.108Z,4.40
2022-09-12T11:44:28.656Z,5.65
2022-09-12T11:55:12.708Z,6.40
2022-09-12T12:05:34.105Z,7.40
2022-09-12T12:16:00.905Z,5.75
2022-09-12T12:26:40.705Z,7.65
2022-09-12T12:37:22.498Z,7.80
2022-09-12T12:47:57.148Z,7.18
2022-09-12T12:58:28.356Z,7.20
2022-09-12T13:09:00.159Z,6.43
2022-09-12T13:19:28.011Z,5.43
2022-09-12T13:29:50.238Z,4.82
2022-09-12T13:40:22.678Z,5.22
2022-09-12T13:50:57.649Z,4.85
2022-09-12T14:01:19.155Z,5.05
2022-09-12T14:11:40.714Z,5.10
2022-09-12T14:22:02.371Z,3.80
2022-09-12T14:32:26.252Z,3.78
2022-09-12T14:42:53.035Z,4.07
2022-09-12T14:53:17.431Z,4.25
2022-09-12T15:03:43.950Z,3.72
2022-09-12T15:14:13.875Z,3.33
2022-09-12T15:24:35.326Z,3.30
2022-09-12T15:34:56.866Z,3.75
2022-09-12T15:45:25.836Z,3.80
2022-09-12T15:55:47.418Z,3.83
2022-09-12T16:06:11.007Z,3.10
2022-09-12T16:16:32.621Z,2.53
2022-09-12T16:26:56.883Z,2.70
2022-09-12T16:37:22.449Z,2.60
2022-09-12T16:47:43.951Z,2.10
2022-09-12T16:58:05.403Z,2.40
2022-09-12T17:08:28.723Z,2.28
2022-09-12T17:18:51.918Z,2.50
2022-09-12T17:29:14.102Z,2.35
2022-09-12T17:39:35.572Z,2.25
2022-09-12T17:50:09.375Z,2.30
2022-09-12T18:00:57.147Z,2.50
2022-09-12T18:11:18.634Z,2.50
2022-09-12T18:21:40.226Z,2.75
2022-09-12T18:32:01.949Z,2.85
2022-09-12T18:42:24.895Z,2.88
2022-09-12T18:52:46.458Z,2.90
2022-09-12T19:03:08.049Z,2.95
2022-09-12T19:13:29.939Z,3.20
2022-09-12T19:23:53.267Z,3.10
2022-09-12T19:34:15.519Z,3.47
2022-09-12T19:44:37.100Z,4.20
2022-09-12T19:54:58.532Z,3.75
2022-09-12T20:05:20.847Z,3.72
2022-09-12T20:15:42.374Z,4.40
2022-09-12T20:26:04.523Z,4.68
2022-09-12T20:36:26.446Z,4.45
2022-09-12T20:46:47.934Z,4.60
2022-09-12T20:57:09.484Z,4.72
2022-09-12T21:07:30.938Z,4.90
2022-09-12T21:17:52.657Z,5.82
2022-09-12T21:28:15.579Z,5.47
2022-09-12T21:38:37.314Z,5.63
2022-09-12T21:48:58.953Z,6.45
2022-09-12T21:59:20.584Z,5.60
2022-09-12T22:09:42.668Z,6.38
2022-09-12T22:20:04.624Z,6.53
2022-09-12T22:30:27.357Z,7.90
2022-09-12T22:40:48.938Z,7.47
2022-09-12T22:51:10.845Z,7.13
2022-09-12T23:01:33.229Z,7.13
2022-09-12T23:11:54.682Z,7.75
2022-09-12T23:22:16.175Z,8.00
2022-09-12T23:32:37.605Z,7.70
2022-09-12T23:42:59.057Z,8.13
2022-09-12T23:53:21.131Z,8.55
